Time;durP1;ratioP1;P1;durP2;ratioP2;P2;SDS_P1;SDS_P2;PMS_P1;PMS_P2;Temp;Humidity;BMP_temperature;BMP_pressure;BME280_temperature;BME280_humidity;BME280_pressure;Samples;Min_cycle;Max_cycle;Signal;HPM_P1;HPM_P2
2023/06/10 00:01:59;;;;;;;;;14.75;14.75;;;;;25.69;45.03;100058.88;5069674;28;47018;-68
2023/06/10 00:04:26;;;;;;;;;17.25;17.25;;;;;25.67;45.61;100063.63;5054662;28;53457;-65
2023/06/10 00:06:52;;;;;;;;;15.25;15.25;;;;;25.63;45.93;100056.91;5055670;28;45356;-65
2023/06/10 00:09:18;;;;;;;;;18.50;18.00;;;;;25.61;46.10;100050.84;5055331;28;45298;-67
2023/06/10 00:11:44;;;;;;;;;15.75;15.75;;;;;25.60;46.32;100054.56;5054587;28;45462;-64
2023/06/10 00:14:09;;;;;;;;;15.00;15.00;;;;;25.55;46.24;100056.94;5054702;28;45194;-67
2023/06/10 00:16:35;;;;;;;;;19.75;19.75;;;;;25.55;46.13;100052.34;5053659;28;45294;-68
2023/06/10 00:19:02;;;;;;;;;16.00;16.00;;;;;25.55;46.21;100057.75;5055263;28;45638;-67
2023/06/10 00:21:28;;;;;;;;;24.50;24.50;;;;;25.54;46.67;100058.75;5054927;28;46510;-66
2023/06/10 00:23:55;;;;;;;;;15.75;15.75;;;;;25.51;46.69;100057.28;5055200;28;45323;-64
2023/06/10 00:26:23;;;;;;;;;16.00;16.00;;;;;25.48;46.96;100051.38;5055364;28;45431;-65
2023/06/10 00:28:49;;;;;;;;;17.00;17.00;;;;;25.50;46.29;100062.81;5055296;28;45612;-64
2023/06/10 00:31:15;;;;;;;;;17.00;17.00;;;;;25.48;46.93;100059.44;5054829;28;47058;-64
2023/06/10 00:33:40;;;;;;;;;11.00;11.00;;;;;25.43;46.90;100053.72;5053487;28;46161;-66
2023/06/10 00:36:05;;;;;;;;;14.75;14.75;;;;;25.42;47.36;100060.94;5054347;28;61531;-66
2023/06/10 00:38:31;;;;;;;;;16.00;15.25;;;;;25.38;47.36;100063.16;5055085;28;45340;-66
2023/06/10 00:40:57;;;;;;;;;14.50;14.50;;;;;25.37;47.36;100066.84;5054774;28;46920;-66
2023/06/10 00:43:22;;;;;;;;;15.75;15.75;;;;;25.35;47.25;100068.00;5055048;28;45410;-66
2023/06/10 00:45:48;;;;;;;;;15.25;15.25;;;;;25.34;47.93;100069.03;5054665;28;45304;-66
2023/06/10 00:48:13;;;;;;;;;16.75;16.75;;;;;25.29;47.50;100063.31;5054993;28;45644;-66
2023/06/10 00:50:39;;;;;;;;;18.00;18.00;;;;;25.27;48.04;100062.66;5053193;28;47085;-63
2023/06/10 00:53:05;;;;;;;;;14.25;14.25;;;;;25.21;48.33;100067.72;5054677;28;45390;-67
2023/06/10 00:55:32;;;;;;;;;15.25;15.25;;;;;25.18;48.12;100072.59;5053573;28;45328;-63
2023/06/10 00:57:58;;;;;;;;;18.00;18.00;;;;;25.14;48.45;100074.78;5054896;28;45398;-66
2023/06/10 01:00:23;;;;;;;;;16.50;16.00;;;;;25.05;48.57;100073.97;5054848;28;46205;-66
2023/06/10 01:02:49;;;;;;;;;14.25;14.25;;;;;24.98;48.96;100072.97;5053218;28;45436;-65
2023/06/10 01:05:14;;;;;;;;;14.00;14.00;;;;;25.00;49.08;100075.47;5054570;28;45207;-65
2023/06/10 01:07:48;;;;;;;;;10.50;10.50;;;;;24.88;49.42;100065.03;5054914;28;45365;-66
2023/06/10 01:10:30;;;;;;;;;13.75;13.75;;;;;24.89;49.30;100074.78;5054464;28;46803;-65
2023/06/10 01:13:06;;;;;;;;;12.00;12.00;;;;;24.86;50.02;100072.44;5056492;28;45418;-67
2023/06/10 01:15:32;;;;;;;;;15.25;15.25;;;;;24.76;50.01;100077.97;5058228;28;45440;-66
2023/06/10 01:18:04;;;;;;;;;11.25;11.25;;;;;24.68;49.77;100069.03;5058653;28;45786;-66
2023/06/10 01:20:32;;;;;;;;;10.75;10.75;;;;;24.62;49.79;100071.38;5057971;28;46261;-66
2023/06/10 01:23:02;;;;;;;;;12.25;12.25;;;;;24.61;50.52;100075.09;5058094;28;45265;-67
2023/06/10 01:25:29;;;;;;;;;15.75;15.75;;;;;24.57;50.21;100065.66;5073816;27;45371;-67
2023/06/10 01:28:06;;;;;;;;;13.25;13.25;;;;;24.48;50.71;100061.28;5058513;28;45559;-68
2023/06/10 01:30:41;;;;;;;;;11.25;11.25;;;;;24.46;50.98;100076.75;5057865;28;45349;-65
2023/06/10 01:33:10;;;;;;;;;12.50;12.50;;;;;24.41;50.54;100073.72;5057774;28;45332;-66
2023/06/10 01:35:37;;;;;;;;;12.50;12.50;;;;;24.35;51.02;100057.22;5056666;28;45285;-66
2023/06/10 01:38:03;;;;;;;;;11.75;11.75;;;;;24.32;51.28;100068.28;5073562;27;45274;-66
2023/06/10 01:40:30;;;;;;;;;13.25;13.25;;;;;24.28;51.32;100072.31;5058049;28;46205;-65
2023/06/10 01:42:56;;;;;;;;;12.75;12.75;;;;;24.27;51.65;100075.19;5073638;28;45451;-66
2023/06/10 01:45:21;;;;;;;;;13.00;13.00;;;;;24.23;51.27;100074.66;5057742;28;45366;-66
2023/06/10 01:47:46;;;;;;;;;10.25;10.25;;;;;24.16;51.39;100071.78;5057726;28;45449;-65
2023/06/10 01:50:12;;;;;;;;;10.50;10.50;;;;;24.18;51.88;100085.03;5057544;28;46616;-67
2023/06/10 01:52:38;;;;;;;;;10.50;10.50;;;;;24.12;51.64;100081.19;5057766;28;45318;-67
2023/06/10 01:55:04;;;;;;;;;10.75;10.75;;;;;24.10;51.90;100090.41;5057876;28;45295;-67
2023/06/10 01:57:29;;;;;;;;;11.50;11.50;;;;;24.04;52.27;100087.34;5058313;28;45500;-67
2023/06/10 01:59:54;;;;;;;;;11.00;11.00;;;;;24.01;52.70;100089.53;5057497;28;45604;-66
2023/06/10 02:02:21;;;;;;;;;10.50;10.50;;;;;23.98;52.80;100081.78;5057615;28;45256;-67
2023/06/10 02:04:47;;;;;;;;;10.25;10.25;;;;;23.94;52.39;100091.97;5057792;28;45466;-66
2023/06/10 02:07:12;;;;;;;;;10.00;10.00;;;;;23.91;52.99;100086.94;5057624;28;45303;-67
2023/06/10 02:09:37;;;;;;;;;11.00;11.00;;;;;23.87;52.91;100088.25;5056986;28;55544;-66
2023/06/10 02:12:04;;;;;;;;;12.75;12.75;;;;;23.71;53.07;100071.06;5057247;28;45283;-66
2023/06/10 02:14:30;;;;;;;;;8.50;8.50;;;;;23.77;52.95;100091.91;5073297;27;45388;-66
2023/06/10 02:16:57;;;;;;;;;12.50;12.50;;;;;23.75;53.80;100087.69;5057440;28;45405;-67
2023/06/10 02:19:23;;;;;;;;;9.00;9.00;;;;;23.72;53.63;100088.88;5057099;28;45360;-66
2023/06/10 02:21:48;;;;;;;;;10.75;10.75;;;;;23.67;53.95;100084.97;5055688;28;45350;-68
2023/06/10 02:24:13;;;;;;;;;13.00;13.00;;;;;23.66;53.50;100089.50;5056583;28;45358;-68
2023/06/10 02:26:40;;;;;;;;;14.75;14.75;;;;;23.62;53.91;100088.13;5056668;28;51259;-67
2023/06/10 02:29:06;;;;;;;;;8.50;8.50;;;;;23.57;54.20;100085.09;5055762;28;47321;-67
2023/06/10 02:31:31;;;;;;;;;10.00;10.00;;;;;23.53;54.16;100089.91;5057306;28;45330;-66
2023/06/10 02:33:56;;;;;;;;;9.25;9.25;;;;;23.52;54.24;100096.28;5057020;28;45207;-65
2023/06/10 02:36:23;;;;;;;;;11.25;11.25;;;;;23.49;54.09;100091.25;5057193;28;45721;-67
2023/06/10 02:38:49;;;;;;;;;10.50;10.50;;;;;23.47;54.40;100090.56;5056932;28;46367;-65
2023/06/10 02:41:14;;;;;;;;;13.00;13.00;;;;;23.42;54.43;100092.88;5056466;28;45402;-67
2023/06/10 02:43:40;;;;;;;;;11.25;11.25;;;;;23.41;54.36;100094.72;5056617;28;50639;-67
2023/06/10 02:46:05;;;;;;;;;9.25;9.25;;;;;23.36;54.32;100091.69;5056406;28;48914;-66
2023/06/10 02:48:30;;;;;;;;;12.25;12.25;;;;;23.35;54.60;100095.34;5056863;28;51285;-69
2023/06/10 02:50:56;;;;;;;;;10.25;10.25;;;;;23.31;54.73;100093.97;5056924;28;45365;-66
2023/06/10 02:53:21;;;;;;;;;19.00;19.00;;;;;23.23;54.86;100085.81;5056831;28;45450;-68
2023/06/10 02:55:47;;;;;;;;;11.00;11.00;;;;;23.20;55.13;100087.81;5056856;28;45363;-63
2023/06/10 02:58:12;;;;;;;;;11.25;11.25;;;;;23.19;55.13;100096.03;5055152;28;47998;-66
2023/06/10 03:00:39;;;;;;;;;9.50;9.50;;;;;23.14;54.89;100096.50;5056499;28;45340;-66
2023/06/10 03:03:04;;;;;;;;;11.00;11.00;;;;;23.11;55.48;100096.81;5055429;28;45301;-63
2023/06/10 03:05:31;;;;;;;;;9.75;9.75;;;;;23.07;55.03;100099.97;5056969;28;45323;-66
2023/06/10 03:07:56;;;;;;;;;12.75;12.75;;;;;23.07;55.62;100102.66;5056493;28;45981;-67
2023/06/10 03:10:21;;;;;;;;;12.00;12.00;;;;;22.99;55.41;100096.22;5056261;28;48851;-68
2023/06/10 03:12:47;;;;;;;;;10.00;10.00;;;;;22.97;55.45;100095.53;5056435;28;45362;-66
2023/06/10 03:15:13;;;;;;;;;11.50;11.50;;;;;22.95;55.61;100102.91;5056630;28;45224;-67
2023/06/10 03:17:38;;;;;;;;;10.25;10.25;;;;;22.91;55.94;100107.72;5056230;28;46266;-68
2023/06/10 03:20:05;;;;;;;;;11.75;11.75;;;;;22.90;56.06;100111.38;5055029;28;47226;-67
2023/06/10 03:22:31;;;;;;;;;13.00;13.00;;;;;22.86;56.12;100106.50;5056707;28;45400;-65
2023/06/10 03:24:57;;;;;;;;;1.75;1.75;;;;;22.86;55.61;100120.75;5056238;28;45628;-67
2023/06/10 03:27:22;;;;;;;;;9.25;9.25;;;;;22.81;55.81;100112.31;5055852;28;46530;-67
2023/06/10 03:29:47;;;;;;;;;9.25;9.25;;;;;22.77;56.69;100106.41;5055926;28;45405;-67
2023/06/10 03:32:13;;;;;;;;;13.00;11.00;;;;;22.74;56.53;100113.91;5055793;28;47845;-67
2023/06/10 03:34:38;;;;;;;;;8.50;8.50;;;;;22.69;56.54;100103.63;5056391;28;45429;-68
2023/06/10 03:37:04;;;;;;;;;9.00;9.00;;;;;22.64;56.21;100103.25;5054874;28;45585;-68
2023/06/10 03:39:30;;;;;;;;;10.00;10.00;;;;;22.64;56.14;100115.81;5056085;28;45372;-66
2023/06/10 03:41:57;;;;;;;;;11.75;11.75;;;;;22.59;56.62;100114.44;5055854;28;45211;-66
2023/06/10 03:44:22;;;;;;;;;9.25;9.25;;;;;22.57;56.41;100111.06;5055645;28;45385;-67
2023/06/10 03:46:47;;;;;;;;;8.75;8.75;;;;;22.57;56.91;100112.91;5055471;28;46074;-64
2023/06/10 03:49:14;;;;;;;;;11.00;11.00;;;;;22.53;56.95;100106.16;5056074;28;45248;-67
2023/06/10 03:51:40;;;;;;;;;9.50;9.50;;;;;22.51;56.88;100118.88;5055991;28;45348;-68
2023/06/10 03:54:05;;;;;;;;;10.50;9.75;;;;;22.49;57.28;100118.16;5056285;28;45563;-67
2023/06/10 03:56:31;;;;;;;;;10.00;10.00;;;;;22.46;57.38;100117.47;5055301;28;46181;-67
2023/06/10 03:58:56;;;;;;;;;9.50;9.50;;;;;22.46;57.31;100119.34;5055283;28;45457;-65
2023/06/10 04:01:23;;;;;;;;;10.00;10.00;;;;;22.45;57.56;100120.31;5055482;28;45354;-64
2023/06/10 04:03:50;;;;;;;;;10.25;10.25;;;;;22.41;57.39;100118.91;5055637;28;45351;-65
2023/06/10 04:06:16;;;;;;;;;9.25;9.25;;;;;22.39;57.41;100120.91;5053610;28;47123;-66
2023/06/10 04:08:42;;;;;;;;;9.00;9.00;;;;;22.36;58.16;100123.88;5054975;28;45363;-66
2023/06/10 04:11:08;;;;;;;;;10.00;10.00;;;;;22.32;58.08;100124.19;5070925;27;45423;-67
2023/06/10 04:13:33;;;;;;;;;7.25;7.25;;;;;22.31;57.64;100132.34;5055430;28;45348;-67
2023/06/10 04:15:59;;;;;;;;;10.75;10.75;;;;;22.27;58.07;100126.47;5054970;28;46345;-65
2023/06/10 04:18:25;;;;;;;;;8.50;8.50;;;;;22.25;58.51;100132.94;5055076;28;45385;-64
2023/06/10 04:20:50;;;;;;;;;9.75;9.75;;;;;22.22;58.36;100126.03;5055311;28;45393;-66
2023/06/10 04:23:16;;;;;;;;;8.75;8.75;;;;;22.20;58.28;100121.84;5055362;28;45596;-66
2023/06/10 04:25:41;;;;;;;;;8.75;8.75;;;;;22.22;58.39;100130.56;5054898;28;46188;-66
2023/06/10 04:28:07;;;;;;;;;10.00;10.00;;;;;22.22;58.61;100135.94;5055300;28;45473;-64
2023/06/10 04:30:33;;;;;;;;;9.00;9.00;;;;;22.18;58.83;100135.38;5055225;28;45275;-67
2023/06/10 04:32:58;;;;;;;;;11.25;11.00;;;;;22.22;58.94;100143.97;5055349;28;45335;-66
2023/06/10 04:35:26;;;;;;;;;8.00;8.00;;;;;22.18;58.83;100140.72;5053564;28;46464;-68
2023/06/10 04:37:51;;;;;;;;;10.50;10.50;;;;;22.13;59.15;100140.31;5046373;28;45402;-67
2023/06/10 04:40:17;;;;;;;;;8.00;8.00;;;;;22.00;59.48;100119.25;5054806;28;48443;-67
2023/06/10 04:42:42;;;;;;;;;8.25;8.25;;;;;22.11;59.35;100148.53;5054506;28;45500;-67
2023/06/10 04:45:08;;;;;;;;;9.25;9.25;;;;;22.09;59.26;100149.66;5055067;28;47627;-67
2023/06/10 04:47:33;;;;;;;;;9.00;9.00;;;;;22.08;59.41;100153.31;5051422;28;45286;-68
2023/06/10 04:50:00;;;;;;;;;8.25;8.25;;;;;22.04;59.68;100155.47;5054638;28;45235;-71
2023/06/10 04:52:25;;;;;;;;;10.00;10.00;;;;;22.08;59.45;100156.00;5055267;28;45451;-70
2023/06/10 04:54:51;;;;;;;;;10.00;10.00;;;;;22.09;59.56;100165.72;5046739;28;46376;-70
2023/06/10 04:57:16;;;;;;;;;8.00;8.00;;;;;22.10;59.67;100151.34;5048319;28;45343;-67
2023/06/10 04:59:41;;;;;;;;;11.75;11.75;;;;;22.14;59.61;100152.72;5053996;28;51328;-64
2023/06/10 05:02:07;;;;;;;;;8.00;8.00;;;;;22.22;60.05;100163.53;5047581;28;45331;-64
2023/06/10 05:04:32;;;;;;;;;11.00;11.00;;;;;22.30;59.30;100158.31;5054183;28;46083;-64
2023/06/10 05:06:57;;;;;;;;;10.50;10.50;;;;;22.43;59.50;100166.00;5054032;28;51293;-66
2023/06/10 05:09:23;;;;;;;;;10.00;10.00;;;;;22.54;59.41;100170.34;5052461;28;45647;-67
2023/06/10 05:11:48;;;;;;;;;9.50;9.50;;;;;22.65;59.24;100168.44;5052791;28;45438;-64
2023/06/10 05:14:16;;;;;;;;;9.25;9.25;;;;;22.73;59.16;100169.34;5050744;28;46656;-65
2023/06/10 05:16:42;;;;;;;;;9.25;9.25;;;;;22.82;58.08;100172.97;5052737;28;45433;-64
2023/06/10 05:19:08;;;;;;;;;11.75;11.75;;;;;22.87;58.40;100151.91;5052581;28;45441;-65
2023/06/10 05:21:33;;;;;;;;;9.00;9.00;;;;;23.04;58.17;100169.03;5052258;28;45543;-65
2023/06/10 05:23:59;;;;;;;;;8.25;8.25;;;;;23.13;57.66;100164.56;5052018;28;46095;-66
2023/06/10 05:26:25;;;;;;;;;8.50;8.50;;;;;23.26;57.62;100174.94;5069702;28;45931;-64
2023/06/10 05:28:50;;;;;;;;;7.75;7.75;;;;;23.35;57.43;100170.50;5053793;28;45516;-66
2023/06/10 05:31:15;;;;;;;;;9.25;9.25;;;;;23.42;56.81;100178.75;5053575;28;45535;-66
2023/06/10 05:33:41;;;;;;;;;10.75;10.75;;;;;23.51;56.58;100176.97;5049732;28;48155;-65
2023/06/10 05:36:06;;;;;;;;;7.50;7.50;;;;;23.55;56.36;100163.06;5036501;28;46296;-65
2023/06/10 05:38:31;;;;;;;;;6.00;6.00;;;;;23.66;56.25;100172.72;5052087;28;45535;-65
2023/06/10 05:40:58;;;;;;;;;9.75;9.75;;;;;23.68;55.84;100165.38;5044560;28;45548;-65
2023/06/10 05:43:24;;;;;;;;;8.25;8.25;;;;;23.76;55.70;100170.78;5046175;28;46457;-65
2023/06/10 05:45:49;;;;;;;;;22.25;22.25;;;;;23.87;55.91;100176.88;5054135;28;45316;-66
2023/06/10 05:48:14;;;;;;;;;8.50;8.50;;;;;23.92;56.02;100180.78;5052754;28;47829;-63
2023/06/10 05:50:42;;;;;;;;;7.00;7.00;;;;;23.98;55.76;100179.28;5054839;28;45283;-64
2023/06/10 05:53:14;;;;;;;;;9.25;9.25;;;;;24.06;55.11;100190.13;5052703;28;47290;-65
2023/06/10 05:55:40;;;;;;;;;10.00;10.00;;;;;24.12;55.04;100187.78;5039702;28;45515;-65
2023/06/10 05:58:05;;;;;;;;;9.25;9.25;;;;;24.13;54.76;100184.09;5049917;28;45285;-66
2023/06/10 06:00:31;;;;;;;;;7.25;7.25;;;;;24.13;54.83;100181.41;5051061;28;45345;-66
2023/06/10 06:02:57;;;;;;;;;9.25;9.25;;;;;24.11;54.77;100186.09;5037118;28;50958;-66
2023/06/10 06:05:22;;;;;;;;;7.00;7.00;;;;;24.07;54.71;100182.91;5043416;28;45467;-66
2023/06/10 06:07:47;;;;;;;;;7.00;7.00;;;;;23.98;55.33;100167.72;5037100;28;45316;-67
2023/06/10 06:10:13;;;;;;;;;7.25;7.25;;;;;23.99;55.26;100178.28;5052781;28;45419;-65
2023/06/10 06:12:38;;;;;;;;;9.25;9.25;;;;;23.95;55.86;100190.34;5055879;28;46348;-67
2023/06/10 06:15:04;;;;;;;;;8.75;8.75;;;;;23.91;55.97;100191.69;5056630;28;55811;-64
2023/06/10 06:17:29;;;;;;;;;7.00;7.00;;;;;23.82;56.07;100180.03;5057209;28;45219;-66
2023/06/10 06:19:54;;;;;;;;;9.75;9.75;;;;;23.83;56.36;100189.78;5057981;28;45361;-67
2023/06/10 06:22:21;;;;;;;;;7.50;7.50;;;;;23.82;56.00;100189.94;5057163;28;47109;-64
2023/06/10 06:24:47;;;;;;;;;10.25;10.00;;;;;23.80;56.37;100186.56;5057016;28;45492;-65
2023/06/10 06:27:12;;;;;;;;;8.50;8.50;;;;;23.78;56.63;100192.94;5057143;28;45347;-66
2023/06/10 06:29:38;;;;;;;;;9.00;8.00;;;;;23.76;56.39;100194.09;5057098;28;45402;-65
2023/06/10 06:32:03;;;;;;;;;11.00;11.00;;;;;23.69;56.46;100196.56;5056869;28;45473;-66
2023/06/10 06:34:29;;;;;;;;;8.00;8.00;;;;;23.66;56.98;100201.41;5050391;28;45403;-65
2023/06/10 06:36:54;;;;;;;;;10.75;10.75;;;;;23.67;56.91;100193.22;5052210;28;45622;-65
2023/06/10 06:39:20;;;;;;;;;9.25;8.75;;;;;23.68;56.86;100194.03;5054158;28;45910;-65
2023/06/10 06:41:45;;;;;;;;;10.50;10.50;;;;;23.70;57.19;100192.91;5055216;28;46250;-64
2023/06/10 06:44:10;;;;;;;;;11.50;11.50;;;;;23.72;57.70;100201.63;5053862;28;45617;-65
2023/06/10 06:46:36;;;;;;;;;9.25;9.25;;;;;23.71;57.25;100199.94;5050598;28;45507;-66
2023/06/10 06:49:01;;;;;;;;;9.25;9.25;;;;;23.76;57.22;100211.06;5047617;28;45397;-64
2023/06/10 06:51:26;;;;;;;;;12.50;12.50;;;;;23.79;57.81;100204.50;5053217;28;45523;-66
2023/06/10 06:53:54;;;;;;;;;11.00;11.00;;;;;23.84;57.55;100206.75;5053503;28;45390;-66
2023/06/10 06:56:20;;;;;;;;;9.00;9.00;;;;;23.84;57.14;100209.44;5055201;28;45358;-67
2023/06/10 06:58:45;;;;;;;;;8.25;8.25;;;;;23.87;57.23;100203.75;5043813;28;45646;-66
2023/06/10 07:01:11;;;;;;;;;8.00;8.00;;;;;23.85;57.52;100205.75;5053039;28;46172;-65
2023/06/10 07:03:36;;;;;;;;;15.75;15.75;;;;;23.97;57.41;100217.06;5053322;28;46739;-67
2023/06/10 07:06:01;;;;;;;;;7.50;7.50;;;;;24.01;57.70;100215.78;5054943;28;45480;-65
2023/06/10 07:08:27;;;;;;;;;9.75;9.75;;;;;24.07;57.42;100221.34;5054692;28;45514;-66
2023/06/10 07:10:53;;;;;;;;;9.00;9.00;;;;;24.10;57.98;100214.84;5051450;28;46975;-67
2023/06/10 07:13:18;;;;;;;;;10.00;10.00;;;;;23.97;58.00;100199.09;5049479;28;45546;-68
2023/06/10 07:15:43;;;;;;;;;7.25;7.25;;;;;24.08;57.87;100211.47;5048583;28;45633;-68
2023/06/10 07:18:09;;;;;;;;;10.75;10.75;;;;;24.16;57.85;100213.34;5055187;28;45618;-67
2023/06/10 07:20:34;;;;;;;;;9.50;9.50;;;;;24.29;57.94;100221.81;5055470;28;46358;-67
2023/06/10 07:22:59;;;;;;;;;9.75;9.75;;;;;24.34;57.89;100207.91;5043803;28;45522;-66
2023/06/10 07:25:25;;;;;;;;;9.50;9.50;;;;;24.36;57.59;100206.72;5043526;28;45490;-66
2023/06/10 07:27:50;;;;;;;;;10.75;10.75;;;;;24.48;57.59;100222.59;5042379;28;45584;-67
2023/06/10 07:30:16;;;;;;;;;9.00;9.00;;;;;24.53;57.81;100219.41;5047795;28;46449;-66
2023/06/10 07:32:43;;;;;;;;;9.75;9.75;;;;;24.59;57.32;100229.50;5055060;28;45335;-68
2023/06/10 07:35:13;;;;;;;;;7.50;7.50;;;;;24.63;57.86;100212.03;5049525;28;45479;-65
2023/06/10 07:37:38;;;;;;;;;10.50;10.50;;;;;24.65;57.79;100218.09;5034211;28;45359;-67
2023/06/10 07:40:04;;;;;;;;;9.75;9.75;;;;;24.72;57.48;100223.69;5064008;28;45478;-68
2023/06/10 07:42:35;;;;;;;;;9.25;9.25;;;;;24.79;58.05;100232.81;5053793;28;45240;-65
2023/06/10 07:45:00;;;;;;;;;7.25;7.25;;;;;24.75;57.44;100212.63;5041688;28;45560;-65
2023/06/10 07:47:26;;;;;;;;;8.75;8.75;;;;;24.92;57.84;100232.34;5043064;28;45910;-65
2023/06/10 07:49:51;;;;;;;;;14.50;14.50;;;;;24.96;57.71;100235.53;5051780;28;45959;-65
2023/06/10 07:52:16;;;;;;;;;11.00;9.25;;;;;24.99;57.47;100245.97;5041619;28;46380;-65
2023/06/10 07:54:42;;;;;;;;;8.00;8.00;;;;;25.05;57.09;100238.09;5054545;28;45638;-67
2023/06/10 07:57:07;;;;;;;;;9.75;9.75;;;;;25.06;57.45;100242.47;5049370;28;46100;-65
2023/06/10 07:59:33;;;;;;;;;13.00;13.00;;;;;25.04;57.59;100239.09;5048509;28;46355;-66
2023/06/10 08:01:58;;;;;;;;;8.00;8.00;;;;;25.02;57.60;100245.63;5036239;28;45260;-65
2023/06/10 08:04:24;;;;;;;;;15.75;15.75;;;;;25.04;57.44;100246.31;5046131;28;45463;-65
2023/06/10 08:06:49;;;;;;;;;16.25;16.25;;;;;25.10;57.31;100253.72;5053870;28;45437;-64
2023/06/10 08:09:15;;;;;;;;;15.25;15.25;;;;;25.19;57.12;100249.22;5044900;28;46505;-64
2023/06/10 08:11:40;;;;;;;;;13.75;13.00;;;;;25.22;56.74;100251.56;5054993;28;45354;-65
2023/06/10 08:14:06;;;;;;;;;13.25;13.25;;;;;25.30;56.56;100256.97;5054009;28;45314;-65
2023/06/10 08:16:31;;;;;;;;;9.75;9.75;;;;;25.27;56.63;100243.84;5055525;28;45326;-64
2023/06/10 08:18:57;;;;;;;;;14.25;14.00;;;;;25.42;56.32;100253.94;5055628;28;46273;-65
2023/06/10 08:21:22;;;;;;;;;9.75;9.75;;;;;25.46;55.90;100256.19;5055589;28;45189;-66
2023/06/10 08:23:47;;;;;;;;;11.00;11.00;;;;;25.59;55.83;100257.53;5053223;28;45232;-65
2023/06/10 08:26:13;;;;;;;;;9.00;9.00;;;;;25.69;55.27;100263.59;5055220;28;45204;-65
2023/06/10 08:28:38;;;;;;;;;9.75;9.75;;;;;25.77;55.30;100258.19;5055147;28;45387;-65
2023/06/10 08:31:03;;;;;;;;;10.50;10.25;;;;;25.78;54.99;100250.94;5053718;28;45988;-65
2023/06/10 08:33:29;;;;;;;;;8.50;8.50;;;;;25.87;54.86;100254.47;5055073;28;45359;-65
2023/06/10 08:35:54;;;;;;;;;9.50;9.50;;;;;25.95;54.90;100265.25;5060224;28;45443;-64
2023/06/10 08:38:20;;;;;;;;;10.75;10.75;;;;;26.00;54.88;100256.66;5091059;27;47374;-68
2023/06/10 08:40:45;;;;;;;;;10.00;10.00;;;;;26.04;54.60;100250.75;5045535;27;45563;-65
2023/06/10 08:43:22;;;;;;;;;11.25;11.25;;;;;26.14;54.52;100261.34;5053657;28;45403;-65
2023/06/10 08:45:49;;;;;;;;;12.50;12.50;;;;;26.21;54.24;100256.97;5035476;28;45616;-65
2023/06/10 08:48:16;;;;;;;;;14.50;14.50;;;;;26.26;54.26;100251.06;5053230;28;45446;-66
2023/06/10 08:50:42;;;;;;;;;12.75;12.75;;;;;26.32;53.88;100258.44;5036980;28;45182;-68
2023/06/10 08:53:08;;;;;;;;;7.75;7.75;;;;;26.40;53.81;100252.22;5052035;28;45328;-65
2023/06/10 08:55:37;;;;;;;;;10.25;10.25;;;;;26.45;53.35;100255.22;5055151;28;45251;-64
2023/06/10 08:58:03;;;;;;;;;8.50;8.50;;;;;26.49;52.95;100259.25;5052056;28;46387;-65
2023/06/10 09:00:29;;;;;;;;;6.75;6.75;;;;;26.56;52.60;100263.94;5053166;28;45455;-66
2023/06/10 09:02:59;;;;;;;;;7.50;7.50;;;;;26.63;52.16;100265.78;5050240;28;45259;-65
2023/06/10 09:05:27;;;;;;;;;9.50;9.50;;;;;26.71;52.49;100250.56;5054829;28;45645;-68
2023/06/10 09:07:52;;;;;;;;;6.50;6.50;;;;;26.79;52.29;100264.03;5054822;28;45651;-67
2023/06/10 09:10:18;;;;;;;;;6.75;6.75;;;;;26.90;52.11;100254.69;5054571;28;45390;-66
2023/06/10 09:12:44;;;;;;;;;9.25;9.25;;;;;26.98;51.62;100257.34;5054268;28;45489;-64
2023/06/10 09:15:11;;;;;;;;;7.00;7.00;;;;;27.01;50.93;100266.97;5053531;28;45446;-65
2023/06/10 09:17:37;;;;;;;;;7.50;7.50;;;;;27.04;50.62;100256.66;5052465;28;45305;-66
2023/06/10 09:20:03;;;;;;;;;6.75;6.75;;;;;27.13;50.48;100260.16;5051686;28;45927;-64
2023/06/10 09:22:29;;;;;;;;;6.00;6.00;;;;;27.16;50.38;100259.78;5045971;28;45294;-66
2023/06/10 09:25:08;;;;;;;;;7.50;7.50;;;;;27.23;50.17;100260.75;5054082;28;45703;-66
2023/06/10 09:27:45;;;;;;;;;8.25;8.25;;;;;27.29;50.41;100267.31;5052959;28;45426;-67
2023/06/10 09:30:25;;;;;;;;;8.25;8.25;;;;;27.38;49.63;100259.97;5051336;28;45278;-65
2023/06/10 09:32:50;;;;;;;;;6.75;6.75;;;;;27.49;49.14;100264.13;5036126;28;45327;-65
2023/06/10 09:35:16;;;;;;;;;10.75;10.75;;;;;27.55;48.71;100264.25;5051902;28;45417;-67
2023/06/10 09:37:44;;;;;;;;;4.50;4.50;;;;;27.62;48.45;100261.69;5050271;28;46194;-67
2023/06/10 09:40:10;;;;;;;;;7.00;7.00;;;;;27.70;48.79;100258.91;5054833;28;45465;-66
2023/06/10 09:42:38;;;;;;;;;5.25;5.25;;;;;27.74;48.12;100269.34;5054955;28;45493;-67
2023/06/10 09:45:05;;;;;;;;;5.00;5.00;;;;;27.73;47.22;100260.41;5055910;28;45444;-65
2023/06/10 09:47:30;;;;;;;;;6.50;6.50;;;;;27.81;47.42;100259.47;5051085;28;45504;-66
2023/06/10 09:49:56;;;;;;;;;7.00;7.00;;;;;27.85;47.05;100266.19;5056476;28;45374;-66
2023/06/10 09:52:29;;;;;;;;;6.50;6.50;;;;;27.96;46.96;100265.75;5055606;28;45396;-65
2023/06/10 09:55:00;;;;;;;;;8.00;8.00;;;;;28.03;46.88;100263.16;5056613;28;45277;-66
2023/06/10 09:57:26;;;;;;;;;7.75;7.75;;;;;28.09;46.10;100257.03;5058999;27;45699;-68
2023/06/10 09:59:55;;;;;;;;;13.25;13.25;;;;;28.17;46.82;100266.09;5055524;28;45482;-66
2023/06/10 10:02:21;;;;;;;;;7.75;7.75;;;;;28.30;46.34;100268.16;5052808;28;45446;-68
2023/06/10 10:04:46;;;;;;;;;6.25;6.25;;;;;28.36;46.36;100257.44;5055960;28;45631;-69
2023/06/10 10:07:13;;;;;;;;;9.00;9.00;;;;;28.39;46.35;100262.47;5056873;28;45413;-66
2023/06/10 10:09:39;;;;;;;;;6.50;6.50;;;;;28.50;45.23;100260.31;5053767;28;45462;-68
2023/06/10 10:12:12;;;;;;;;;8.00;8.00;;;;;28.60;45.83;100263.56;5053598;28;45457;-68
2023/06/10 10:14:43;;;;;;;;;8.25;8.25;;;;;28.67;45.74;100260.94;5055996;28;45521;-68
2023/06/10 10:17:11;;;;;;;;;15.75;15.50;;;;;28.71;45.13;100259.53;5055071;28;46405;-67
2023/06/10 10:19:57;;;;;;;;;9.00;9.00;;;;;28.83;44.92;100260.75;5047472;28;45505;-67
2023/06/10 10:22:31;;;;;;;;;8.00;8.00;;;;;28.91;44.58;100261.69;5055934;28;45381;-66
2023/06/10 10:25:02;;;;;;;;;7.00;7.00;;;;;28.92;44.84;100253.38;5056158;28;45338;-67
2023/06/10 10:27:30;;;;;;;;;7.00;7.00;;;;;29.04;44.22;100263.72;5054719;28;45502;-69
2023/06/10 10:29:58;;;;;;;;;9.25;9.25;;;;;29.04;44.33;100263.72;5054215;28;45561;-66
2023/06/10 10:32:34;;;;;;;;;7.25;7.25;;;;;29.09;44.16;100250.44;5055951;28;45390;-68
2023/06/10 10:35:08;;;;;;;;;8.50;8.50;;;;;29.15;43.80;100263.19;5040375;28;46279;-67
2023/06/10 10:37:35;;;;;;;;;7.00;7.00;;;;;29.15;43.81;100247.78;5050639;28;47337;-67
2023/06/10 10:40:03;;;;;;;;;10.75;10.75;;;;;29.23;43.04;100248.72;5047821;28;45468;-66
2023/06/10 10:42:29;;;;;;;;;12.25;12.25;;;;;29.33;42.42;100251.09;5041465;28;45370;-68
2023/06/10 10:44:55;;;;;;;;;10.75;10.75;;;;;29.34;42.02;100261.75;5045603;28;45590;-67
2023/06/10 10:47:22;;;;;;;;;11.75;11.75;;;;;29.35;41.83;100254.44;5055362;28;46354;-68
2023/06/10 10:49:54;;;;;;;;;14.50;14.50;;;;;29.36;42.24;100250.69;5054317;28;45467;-66
2023/06/10 10:52:20;;;;;;;;;9.00;9.00;;;;;29.42;42.17;100249.94;5045475;28;45514;-67
2023/06/10 10:54:47;;;;;;;;;8.75;8.75;;;;;29.47;41.51;100257.50;5049651;28;46334;-67
2023/06/10 10:57:15;;;;;;;;;12.50;11.50;;;;;29.51;41.23;100253.38;5054459;28;46106;-67
2023/06/10 10:59:43;;;;;;;;;6.75;6.75;;;;;29.48;41.77;100246.47;5051076;28;46125;-66
2023/06/10 11:02:08;;;;;;;;;13.50;12.75;;;;;29.48;43.08;100241.03;5042640;28;45319;-65
2023/06/10 11:04:34;;;;;;;;;15.50;15.50;;;;;29.56;40.75;100250.91;5055086;28;45715;-66
2023/06/10 11:07:06;;;;;;;;;12.25;12.00;;;;;29.62;40.83;100252.00;5056316;28;45421;-67
2023/06/10 11:09:32;;;;;;;;;10.25;10.25;;;;;29.62;41.23;100252.84;5071637;28;45247;-68
2023/06/10 11:12:01;;;;;;;;;15.50;15.50;;;;;29.68;41.14;100251.22;5052968;28;45431;-68
2023/06/10 11:14:28;;;;;;;;;49.00;41.25;;;;;29.73;40.72;100262.31;5054971;28;45773;-70